createdAt,value
2019-03-04T09:00:33.489Z,7484.00
2019-03-04T09:01:26.736Z,6004.00
2019-03-04T09:02:26.801Z,6140.00
2019-03-04T09:03:26.709Z,6212.00
2019-03-04T09:04:26.701Z,5220.00
2019-03-04T09:05:26.688Z,5632.00
2019-03-04T09:06:26.677Z,5780.00
2019-03-04T09:07:26.700Z,6248.00
2019-03-04T09:08:26.663Z,6504.00
2019-03-04T09:09:26.646Z,5696.00
2019-03-04T09:10:26.637Z,6204.00
2019-03-04T09:11:26.622Z,7008.00
2019-03-04T09:12:26.656Z,5552.00
2019-03-04T09:13:26.601Z,5412.00
2019-03-04T09:14:26.633Z,5248.00
2019-03-04T09:15:26.580Z,4624.00
2019-03-04T09:16:26.573Z,4972.00
2019-03-04T09:17:26.580Z,4520.00
2019-03-04T09:18:26.557Z,5008.00
2019-03-04T09:19:26.538Z,5728.00
2019-03-04T09:20:26.546Z,4468.00
2019-03-04T09:21:26.513Z,4472.00
2019-03-04T09:22:26.529Z,6208.00
2019-03-04T09:23:26.489Z,6016.00
2019-03-04T09:24:26.515Z,6788.00
2019-03-04T09:25:30.548Z,6624.00
2019-03-04T09:26:26.459Z,5364.00
2019-03-04T09:27:26.482Z,6068.00
2019-03-04T09:28:26.434Z,6372.00
2019-03-04T09:29:26.426Z,7352.00
2019-03-04T09:30:26.412Z,8404.00
2019-03-04T09:31:26.402Z,7076.00
2019-03-04T09:32:26.445Z,6060.00
2019-03-04T09:33:26.400Z,6204.00
2019-03-04T09:34:26.370Z,6720.00
2019-03-04T09:35:26.374Z,6256.00
2019-03-04T09:36:26.349Z,6712.00
2019-03-04T09:37:26.355Z,6200.00
2019-03-04T09:38:26.347Z,6124.00
2019-03-04T09:39:26.311Z,6484.00
2019-03-04T09:40:26.317Z,5552.00
2019-03-04T09:41:26.289Z,6776.00
2019-03-04T09:42:26.278Z,7288.00
2019-03-04T09:43:26.292Z,6996.00
2019-03-04T09:44:26.278Z,8064.00
2019-03-04T09:45:26.244Z,8868.00
2019-03-04T09:46:26.271Z,7040.00
2019-03-04T09:47:26.226Z,7876.00
2019-03-04T09:48:26.247Z,5484.00
2019-03-04T09:49:26.200Z,6904.00
2019-03-04T09:50:26.193Z,9836.00
2019-03-04T09:51:26.177Z,9480.00
2019-03-04T09:52:26.168Z,8748.00
2019-03-04T09:53:26.203Z,6744.00
2019-03-04T09:54:26.145Z,7292.00
2019-03-04T09:55:26.135Z,7500.00
2019-03-04T09:56:26.126Z,6976.00
2019-03-04T09:57:26.112Z,8236.00
2019-03-04T09:58:26.124Z,8124.00
2019-03-04T09:59:26.094Z,9996.00
2019-03-04T10:00:26.092Z,8232.00
2019-03-04T10:01:26.069Z,8524.00
2019-03-04T10:02:26.065Z,8992.00
2019-03-04T10:03:26.064Z,8260.00
2019-03-04T10:04:26.039Z,9788.00
2019-03-04T10:05:26.024Z,10556.00
2019-03-04T10:06:26.011Z,10984.00
2019-03-04T10:07:26.031Z,9640.00
2019-03-04T10:08:32.904Z,8832.00
2019-03-04T10:09:27.028Z,9492.00
2019-03-04T10:10:25.968Z,7436.00
2019-03-04T10:11:25.962Z,6260.00
2019-03-04T10:12:25.945Z,3420.00
2019-03-04T10:13:25.968Z,4076.00
2019-03-04T10:14:25.924Z,3536.00
2019-03-04T10:15:25.942Z,3368.00
2019-03-04T10:16:25.909Z,3196.00
2019-03-04T10:17:25.897Z,3364.00
2019-03-04T10:18:25.900Z,3280.00
2019-03-04T10:19:25.864Z,3356.00
2019-03-04T10:20:25.878Z,3552.00
2019-03-04T10:21:25.845Z,3288.00
2019-03-04T10:22:25.839Z,4032.00
2019-03-04T10:23:25.849Z,3612.00
2019-03-04T10:24:25.826Z,3988.00
2019-03-04T10:25:25.814Z,3700.00
2019-03-04T10:26:25.789Z,3660.00
2019-03-04T10:27:25.819Z,3464.00
2019-03-04T10:28:25.765Z,4840.00
2019-03-04T10:29:25.775Z,3588.00
2019-03-04T10:30:25.765Z,3480.00
2019-03-04T10:31:25.732Z,3580.00
2019-03-04T10:32:25.719Z,3460.00
2019-03-04T10:33:25.711Z,3620.00
2019-03-04T10:34:25.728Z,3652.00
2019-03-04T10:35:25.717Z,3720.00
2019-03-04T10:36:25.686Z,3804.00
2019-03-04T10:37:25.664Z,3872.00
2019-03-04T10:38:25.654Z,3580.00
2019-03-04T10:39:25.673Z,4228.00
2019-03-04T10:40:25.633Z,4700.00
2019-03-04T10:41:25.627Z,5332.00
2019-03-04T10:42:25.608Z,5408.00
2019-03-04T10:43:25.654Z,4992.00
2019-03-04T10:44:25.610Z,4924.00
2019-03-04T10:45:25.576Z,5360.00
2019-03-04T10:46:25.574Z,5088.00
2019-03-04T10:47:25.561Z,5532.00
2019-03-04T10:48:25.546Z,5652.00
2019-03-04T10:49:25.573Z,5916.00
2019-03-04T10:50:25.521Z,6112.00
2019-03-04T10:51:25.540Z,6192.00
2019-03-04T10:52:25.505Z,6220.00
2019-03-04T10:53:25.486Z,6400.00
2019-03-04T10:54:25.474Z,7032.00
2019-03-04T10:55:25.486Z,6352.00
2019-03-04T10:56:25.464Z,6224.00
2019-03-04T10:57:25.442Z,6172.00
2019-03-04T10:58:25.433Z,6972.00
2019-03-04T10:59:25.429Z,7012.00
2019-03-04T11:00:26.969Z,6884.00
2019-03-04T11:01:30.320Z,6764.00
2019-03-04T11:02:26.419Z,7096.00
2019-03-04T11:03:25.374Z,7460.00
2019-03-04T11:04:25.416Z,7900.00
2019-03-04T11:05:25.386Z,7920.00
2019-03-04T11:06:25.342Z,7864.00
2019-03-04T11:07:25.331Z,8164.00
2019-03-04T11:08:25.328Z,8444.00
2019-03-04T11:09:25.322Z,8300.00
2019-03-04T11:10:25.318Z,8744.00
2019-03-04T11:11:29.950Z,8848.00
2019-03-04T11:12:25.273Z,8756.00
2019-03-04T11:13:25.264Z,10276.00
2019-03-04T11:14:25.264Z,9692.00
2019-03-04T11:15:25.305Z,10256.00
2019-03-04T11:16:25.226Z,10556.00
2019-03-04T11:17:25.221Z,10636.00
2019-03-04T11:18:25.218Z,11316.00
2019-03-04T11:19:25.208Z,11652.00
2019-03-04T11:20:25.208Z,12300.00
2019-03-04T11:21:25.200Z,12464.00
2019-03-04T11:22:25.162Z,12828.00
2019-03-04T11:23:25.197Z,13108.00
2019-03-04T11:24:25.151Z,13172.00
2019-03-04T11:25:25.258Z,13448.00
2019-03-04T11:26:25.118Z,13384.00
2019-03-04T11:27:25.199Z,13848.00
2019-03-04T11:28:25.102Z,13872.00
2019-03-04T11:29:25.093Z,14488.00
2019-03-04T11:30:28.475Z,14512.00
2019-03-04T11:31:25.074Z,16064.00
2019-03-04T11:32:25.054Z,15968.00
2019-03-04T11:33:25.042Z,16352.00
2019-03-04T11:34:25.033Z,15076.00
2019-03-04T11:35:25.072Z,14412.00
2019-03-04T11:36:25.005Z,13276.00
2019-03-04T11:37:25.003Z,11824.00
2019-03-04T11:38:24.991Z,11444.00
2019-03-04T11:39:24.977Z,10868.00
2019-03-04T11:40:24.989Z,8872.00
2019-03-04T11:41:24.959Z,9932.00
2019-03-04T11:42:24.943Z,10188.00
2019-03-04T11:43:24.963Z,10468.00
2019-03-04T11:44:24.927Z,6572.00
2019-03-04T11:45:24.943Z,8240.00
2019-03-04T11:46:24.956Z,10136.00
2019-03-04T11:47:24.887Z,12008.00
2019-03-04T11:48:24.878Z,11676.00
2019-03-04T11:49:24.897Z,12520.00
2019-03-04T11:50:24.883Z,12928.00
2019-03-04T11:51:24.840Z,13756.00
2019-03-04T11:52:24.832Z,10544.00
2019-03-04T11:53:24.820Z,8452.00
2019-03-04T11:54:24.814Z,9000.00
2019-03-04T11:55:24.823Z,10624.00
2019-03-04T11:56:24.820Z,9284.00
2019-03-04T11:57:24.803Z,7852.00
2019-03-04T11:58:24.768Z,8408.00
2019-03-04T11:59:24.756Z,7148.00
2019-03-04T12:00:24.747Z,5376.00
2019-03-04T12:01:24.763Z,5060.00
2019-03-04T12:02:24.748Z,3132.00
2019-03-04T12:03:24.710Z,3636.00
2019-03-04T12:04:24.701Z,2784.00
2019-03-04T12:05:24.700Z,2404.00
2019-03-04T12:06:24.712Z,1928.00
2019-03-04T12:07:24.666Z,1412.00
2019-03-04T12:08:24.672Z,1152.00
2019-03-04T12:09:24.658Z,984.00
2019-03-04T12:10:24.636Z,888.00
2019-03-04T12:11:24.644Z,892.00
2019-03-04T12:12:24.619Z,1032.00
2019-03-04T12:13:24.598Z,1024.00
2019-03-04T12:14:24.593Z,840.00
2019-03-04T12:15:24.576Z,1156.00
2019-03-04T12:16:24.600Z,1572.00
2019-03-04T12:17:24.555Z,1840.00
2019-03-04T12:18:24.541Z,1864.00
2019-03-04T12:19:24.532Z,2016.00
2019-03-04T12:20:24.523Z,2364.00
2019-03-04T12:21:24.531Z,2792.00
2019-03-04T12:22:24.514Z,2892.00
2019-03-04T12:23:24.496Z,3256.00
2019-03-04T12:24:24.479Z,3772.00
2019-03-04T12:25:24.464Z,4024.00
2019-03-04T12:26:24.479Z,3784.00
2019-03-04T12:27:24.451Z,3136.00
2019-03-04T12:28:24.446Z,2916.00
2019-03-04T12:29:24.422Z,4068.00
2019-03-04T12:30:24.410Z,6224.00
2019-03-04T12:31:24.422Z,6108.00
2019-03-04T12:32:24.392Z,4792.00
2019-03-04T12:33:24.375Z,4752.00
2019-03-04T12:34:25.060Z,6152.00
2019-03-04T12:35:24.356Z,8244.00
2019-03-04T12:36:24.365Z,9136.00
2019-03-04T12:37:24.339Z,8536.00
2019-03-04T12:38:24.345Z,7812.00
2019-03-04T12:39:24.308Z,5512.00
2019-03-04T12:40:24.319Z,4900.00
2019-03-04T12:41:24.287Z,6648.00
2019-03-04T12:42:24.299Z,8272.00
2019-03-04T12:43:24.269Z,8700.00
2019-03-04T12:44:24.307Z,8620.00
2019-03-04T12:45:33.658Z,8540.00
2019-03-04T12:46:25.263Z,8368.00
2019-03-04T12:47:24.243Z,7808.00
2019-03-04T12:48:24.213Z,7636.00
2019-03-04T12:49:24.201Z,7896.00
2019-03-04T12:50:24.187Z,8080.00
2019-03-04T12:51:24.182Z,8476.00
2019-03-04T12:52:24.191Z,7972.00
2019-03-04T12:53:24.187Z,7216.00
2019-03-04T12:54:24.148Z,7156.00
2019-03-04T12:55:24.132Z,8508.00
2019-03-04T12:56:24.123Z,9856.00
2019-03-04T12:57:24.135Z,10708.00
2019-03-04T12:58:24.106Z,10960.00
2019-03-04T12:59:24.102Z,10448.00
2019-03-04T13:00:24.079Z,9936.00
2019-03-04T13:01:24.072Z,9168.00
2019-03-04T13:02:24.079Z,7960.00
2019-03-04T13:03:24.055Z,6680.00
2019-03-04T13:04:24.062Z,5316.00
2019-03-04T13:05:24.024Z,4228.00
2019-03-04T13:06:24.026Z,3932.00
2019-03-04T13:07:24.022Z,4052.00
2019-03-04T13:08:24.005Z,4500.00
2019-03-04T13:09:23.984Z,5496.00
2019-03-04T13:10:23.981Z,6888.00
2019-03-04T13:11:23.960Z,7836.00
2019-03-04T13:12:24.007Z,8420.00
2019-03-04T13:13:23.937Z,8692.00
2019-03-04T13:14:23.946Z,8672.00
2019-03-04T13:15:23.917Z,8460.00
2019-03-04T13:16:23.908Z,8308.00
2019-03-04T13:17:23.902Z,8404.00
2019-03-04T13:18:23.937Z,8584.00
2019-03-04T13:19:23.880Z,8688.00
2019-03-04T13:20:23.861Z,8656.00
2019-03-04T13:21:23.844Z,8696.00
2019-03-04T13:22:23.840Z,8664.00
2019-03-04T13:23:23.881Z,8668.00
2019-03-04T13:24:23.820Z,8912.00
2019-03-04T13:25:23.799Z,9068.00
2019-03-04T13:26:23.802Z,8752.00
2019-03-04T13:27:24.195Z,8332.00
2019-03-04T13:28:23.787Z,7788.00
2019-03-04T13:29:23.766Z,7416.00
2019-03-04T13:30:23.753Z,7192.00
2019-03-04T13:31:23.729Z,7260.00
2019-03-04T13:32:23.734Z,7340.00
2019-03-04T13:33:23.734Z,6992.00
2019-03-04T13:34:23.697Z,6200.00
2019-03-04T13:35:24.801Z,5460.00
2019-03-04T13:36:23.725Z,5184.00
2019-03-04T13:37:23.670Z,5060.00
2019-03-04T13:38:23.676Z,5056.00
2019-03-04T13:39:23.642Z,5156.00
2019-03-04T13:40:23.629Z,5276.00
2019-03-04T13:41:23.622Z,5368.00
2019-03-04T13:42:23.607Z,5340.00
2019-03-04T13:43:23.674Z,5296.00
2019-03-04T13:44:23.586Z,5268.00
2019-03-04T13:45:23.577Z,5336.00
2019-03-04T13:46:23.568Z,5416.00
2019-03-04T13:47:23.553Z,5644.00
2019-03-04T13:48:23.566Z,5888.00
2019-03-04T13:49:23.573Z,6196.00
2019-03-04T13:50:23.543Z,6476.00
2019-03-04T13:51:23.508Z,6672.00
2019-03-04T13:52:23.499Z,6788.00
2019-03-04T13:53:23.486Z,6824.00
2019-03-04T13:54:23.509Z,6832.00
2019-03-04T13:55:23.503Z,6908.00
2019-03-04T13:56:23.453Z,7028.00
2019-03-04T13:57:23.439Z,7232.00
2019-03-04T13:58:23.436Z,7460.00
2019-03-04T13:59:23.447Z,7632.00
2019-03-04T14:00:23.412Z,7992.00
2019-03-04T14:01:24.580Z,8492.00
2019-03-04T14:02:23.390Z,8364.00
2019-03-04T14:03:23.381Z,7984.00
2019-03-04T14:04:23.399Z,8184.00
2019-03-04T14:05:23.361Z,8508.00
2019-03-04T14:06:23.339Z,8400.00
2019-03-04T14:07:23.364Z,7940.00
2019-03-04T14:08:23.322Z,8072.00
2019-03-04T14:09:23.345Z,7792.00
2019-03-04T14:10:23.294Z,7808.00
2019-03-04T14:11:23.285Z,7708.00
2019-03-04T14:12:23.275Z,7404.00
2019-03-04T14:13:23.296Z,6896.00
2019-03-04T14:14:23.281Z,6376.00
2019-03-04T14:15:23.247Z,5916.00
2019-03-04T14:16:23.227Z,5624.00
2019-03-04T14:17:23.227Z,5596.00
2019-03-04T14:18:23.207Z,5476.00
2019-03-04T14:19:23.233Z,5300.00
2019-03-04T14:20:23.191Z,5416.00
2019-03-04T14:21:23.191Z,5756.00
2019-03-04T14:22:23.162Z,5636.00
2019-03-04T14:23:23.150Z,5204.00
2019-03-04T14:24:23.164Z,6584.00
2019-03-04T14:25:23.145Z,6568.00
2019-03-04T14:26:23.120Z,6524.00
2019-03-04T14:27:23.109Z,6468.00
2019-03-04T14:28:23.102Z,5864.00
2019-03-04T14:29:23.108Z,5644.00
2019-03-04T14:30:23.075Z,6004.00
2019-03-04T14:31:23.114Z,4524.00
2019-03-04T14:32:23.051Z,4588.00
2019-03-04T14:33:23.038Z,4616.00
2019-03-04T14:34:23.030Z,4452.00
2019-03-04T14:35:23.042Z,4096.00
2019-03-04T14:36:23.015Z,4260.00
2019-03-04T14:37:23.033Z,4468.00
2019-03-04T14:38:22.985Z,4432.00
2019-03-04T14:39:22.973Z,4304.00
2019-03-04T14:40:22.988Z,4344.00
2019-03-04T14:41:22.955Z,4320.00
2019-03-04T14:42:22.939Z,4408.00
2019-03-04T14:43:22.952Z,4184.00
2019-03-04T14:44:22.917Z,4204.00
2019-03-04T14:45:22.928Z,4372.00
2019-03-04T14:46:22.896Z,4572.00
2019-03-04T14:47:22.888Z,4792.00
2019-03-04T14:48:22.871Z,4936.00
2019-03-04T14:49:22.909Z,5212.00
2019-03-04T14:50:22.873Z,5508.00
2019-03-04T14:51:22.837Z,5764.00
2019-03-04T14:52:22.831Z,5920.00
2019-03-04T14:53:22.820Z,6172.00
2019-03-04T14:54:22.804Z,6304.00
2019-03-04T14:55:22.848Z,6452.00
2019-03-04T14:56:22.918Z,6456.00
2019-03-04T14:57:22.778Z,6240.00
2019-03-04T14:58:22.760Z,6208.00
2019-03-04T14:59:22.749Z,5944.00
2019-03-04T15:00:22.761Z,5768.00
2019-03-04T15:01:22.738Z,5380.00
2019-03-04T15:02:22.721Z,4756.00
2019-03-04T15:03:23.856Z,4080.00
2019-03-04T15:04:22.706Z,3836.00
2019-03-04T15:05:22.708Z,3924.00
2019-03-04T15:06:22.675Z,3952.00
2019-03-04T15:07:22.716Z,3512.00
2019-03-04T15:08:22.648Z,3404.00
2019-03-04T15:09:22.639Z,3548.00
2019-03-04T15:10:22.649Z,3676.00
2019-03-04T15:11:22.615Z,3704.00
2019-03-04T15:12:22.605Z,3768.00
2019-03-04T15:13:22.620Z,4140.00
2019-03-04T15:14:22.581Z,4168.00
2019-03-04T15:15:22.599Z,4376.00
2019-03-04T15:16:22.558Z,4584.00
2019-03-04T15:17:22.555Z,4856.00
2019-03-04T15:18:22.537Z,5216.00
2019-03-04T15:19:22.553Z,5616.00
2019-03-04T15:20:22.538Z,5840.00
2019-03-04T15:21:22.504Z,5748.00
2019-03-04T15:22:22.493Z,5416.00
2019-03-04T15:23:22.485Z,4860.00
2019-03-04T15:24:22.472Z,4776.00
2019-03-04T15:25:22.520Z,4632.00
2019-03-04T15:26:22.447Z,4484.00
2019-03-04T15:27:22.441Z,4356.00
2019-03-04T15:28:22.425Z,4340.00
2019-03-04T15:29:22.416Z,4328.00
2019-03-04T15:30:22.430Z,4308.00
2019-03-04T15:31:22.414Z,4304.00
2019-03-04T15:32:22.710Z,4348.00
2019-03-04T15:33:22.418Z,4468.00
2019-03-04T15:34:22.364Z,4732.00
2019-03-04T15:35:22.377Z,4800.00
2019-03-04T15:36:22.364Z,4828.00
2019-03-04T15:37:22.340Z,4648.00
2019-03-04T15:38:22.315Z,4320.00
2019-03-04T15:39:23.346Z,4040.00
2019-03-04T15:40:22.296Z,3900.00
2019-03-04T15:41:22.305Z,3848.00
2019-03-04T15:42:22.271Z,3864.00
2019-03-04T15:43:22.281Z,3988.00
2019-03-04T15:44:22.248Z,4000.00
2019-03-04T15:45:22.240Z,4044.00
2019-03-04T15:46:22.248Z,4116.00
2019-03-04T15:47:22.216Z,4064.00
2019-03-04T15:48:22.209Z,3964.00
2019-03-04T15:49:22.194Z,3904.00
2019-03-04T15:50:22.201Z,3936.00
2019-03-04T15:51:22.199Z,3804.00
2019-03-04T15:52:22.162Z,3752.00
2019-03-04T15:53:22.149Z,3780.00
2019-03-04T15:54:22.137Z,3732.00
2019-03-04T15:55:22.131Z,3664.00
2019-03-04T15:56:22.138Z,3760.00
2019-03-04T15:57:22.119Z,3808.00
2019-03-04T15:58:22.091Z,3884.00
2019-03-04T15:59:22.082Z,3928.00
2019-03-04T16:00:22.069Z,4008.00
2019-03-04T16:01:22.084Z,4016.00
2019-03-04T16:02:22.049Z,4120.00
2019-03-04T16:03:22.056Z,4088.00
2019-03-04T16:04:22.027Z,4056.00
2019-03-04T16:05:22.018Z,3880.00
2019-03-04T16:06:22.026Z,3732.00
2019-03-04T16:07:21.993Z,3528.00
2019-03-04T16:08:21.981Z,3352.00
2019-03-04T16:09:21.988Z,3144.00
2019-03-04T16:10:21.974Z,3108.00
2019-03-04T16:11:21.974Z,3036.00
2019-03-04T16:12:22.009Z,3028.00
2019-03-04T16:13:21.925Z,2996.00
2019-03-04T16:14:21.917Z,3060.00
2019-03-04T16:15:21.938Z,3112.00
2019-03-04T16:16:21.926Z,3108.00
2019-03-04T16:17:21.880Z,3152.00
2019-03-04T16:18:21.898Z,3044.00
2019-03-04T16:19:23.603Z,3008.00
2019-03-04T16:20:21.858Z,2964.00
2019-03-04T16:21:21.860Z,2860.00
2019-03-04T16:22:21.862Z,2756.00
2019-03-04T16:23:21.816Z,2636.00
2019-03-04T16:24:21.802Z,2528.00
2019-03-04T16:25:21.793Z,2460.00
2019-03-04T16:26:21.787Z,2368.00
2019-03-04T16:27:21.805Z,2244.00
2019-03-04T16:28:21.795Z,2124.00
2019-03-04T16:29:21.753Z,2020.00
2019-03-04T16:30:21.738Z,1968.00
2019-03-04T16:31:21.729Z,1904.00
2019-03-04T16:32:21.756Z,1808.00
2019-03-04T16:33:21.703Z,1676.00
2019-03-04T16:34:21.708Z,1644.00
2019-03-04T16:35:21.684Z,1596.00
2019-03-04T16:36:21.676Z,1524.00
2019-03-04T16:37:21.681Z,1496.00
2019-03-04T16:38:21.649Z,1440.00
2019-03-04T16:39:21.656Z,1384.00
2019-03-04T16:40:21.650Z,1304.00
2019-03-04T16:41:21.616Z,1228.00
2019-03-04T16:42:21.628Z,1172.00
2019-03-04T16:43:21.599Z,1120.00
2019-03-04T16:44:21.582Z,1060.00
2019-03-04T16:45:21.569Z,1008.00
2019-03-04T16:46:21.618Z,956.00
2019-03-04T16:47:21.576Z,900.00
2019-03-04T16:48:21.549Z,848.00
2019-03-04T16:49:21.525Z,796.00
2019-03-04T16:50:21.514Z,756.00
2019-03-04T16:51:21.512Z,720.00
2019-03-04T16:52:21.544Z,684.00
2019-03-04T16:53:21.488Z,652.00
2019-03-04T16:54:21.473Z,620.00
2019-03-04T16:55:21.458Z,584.00
2019-03-04T16:56:21.454Z,548.00
2019-03-04T16:57:21.463Z,516.00
2019-03-04T16:58:21.448Z,484.00
2019-03-04T16:59:21.420Z,456.00
2019-03-04T17:00:21.430Z,428.00
2019-03-04T17:01:21.398Z,400.00
2019-03-04T17:02:21.380Z,380.00
2019-03-04T17:03:21.437Z,360.00
2019-03-04T17:04:21.373Z,340.00
2019-03-04T17:05:21.353Z,320.00
2019-03-04T17:06:21.337Z,300.00
2019-03-04T17:07:21.325Z,280.00
2019-03-04T17:08:21.336Z,260.00
2019-03-04T17:09:21.302Z,240.00
2019-03-04T17:10:21.318Z,224.00
2019-03-04T17:11:21.280Z,204.00
2019-03-04T17:12:21.276Z,188.00
2019-03-04T17:13:21.281Z,172.00
2019-03-04T17:14:21.246Z,156.00
2019-03-04T17:15:21.250Z,144.00
2019-03-04T17:16:21.239Z,132.00
2019-03-04T17:17:21.211Z,120.00
2019-03-04T17:18:21.228Z,108.00
2019-03-04T17:19:21.189Z,100.00
2019-03-04T17:20:21.185Z,88.00
2019-03-04T17:21:21.205Z,80.00
2019-03-04T17:22:21.175Z,68.00
2019-03-04T17:23:21.201Z,60.00
2019-03-04T17:24:21.136Z,56.00
2019-03-04T17:25:21.157Z,48.00
2019-03-04T17:26:21.112Z,44.00
2019-03-04T17:27:21.108Z,36.00
2019-03-04T17:28:21.113Z,32.00
2019-03-04T17:29:21.104Z,28.00
2019-03-04T17:30:21.075Z,24.00
2019-03-04T17:31:21.061Z,20.00
2019-03-04T17:32:21.043Z,16.00
2019-03-04T17:33:21.055Z,16.00
2019-03-04T17:34:21.025Z,12.00
2019-03-04T17:35:21.007Z,8.00
2019-03-04T17:36:21.033Z,8.00
2019-03-04T17:37:20.990Z,8.00
2019-03-04T17:38:21.000Z,4.00
2019-03-04T17:39:20.967Z,4.00
2019-03-04T17:40:20.955Z,0.00
2019-03-04T17:41:20.963Z,4.00
2019-03-04T17:42:20.943Z,0.00
2019-03-04T17:43:20.918Z,4.00
2019-03-04T17:44:20.912Z,4.00
2019-03-04T17:45:20.901Z,0.00
2019-03-04T17:46:20.924Z,0.00
2019-03-04T17:47:20.883Z,0.00
2019-03-04T17:48:20.863Z,0.00
2019-03-04T17:49:20.873Z,0.00
2019-03-04T17:50:20.840Z,0.00
2019-03-04T17:51:20.828Z,0.00
2019-03-04T17:52:20.817Z,0.00
2019-03-04T17:53:20.817Z,0.00
2019-03-04T17:54:20.817Z,0.00
2019-03-04T17:55:20.785Z,0.00
2019-03-04T17:56:20.770Z,0.00
2019-03-04T17:57:20.764Z,0.00
2019-03-04T17:58:20.747Z,0.00
2019-03-04T17:59:20.781Z,0.00
2019-03-04T18:00:20.762Z,0.00
2019-03-04T18:01:20.725Z,0.00
2019-03-04T18:02:20.702Z,0.00
2019-03-04T18:03:20.691Z,0.00
2019-03-04T18:04:20.703Z,0.00
2019-03-04T18:05:20.669Z,0.00
2019-03-04T18:06:20.690Z,0.00
2019-03-04T18:07:20.647Z,0.00
2019-03-04T18:08:20.634Z,0.00
2019-03-04T18:09:20.646Z,0.00
2019-03-04T18:10:20.615Z,0.00
2019-03-04T18:11:20.608Z,0.00
2019-03-04T18:12:20.613Z,0.00
2019-03-04T18:13:20.577Z,0.00
2019-03-04T18:14:20.591Z,0.00
2019-03-04T18:15:20.557Z,0.00
2019-03-04T18:16:20.549Z,0.00
2019-03-04T18:17:20.532Z,0.00
2019-03-04T18:18:20.533Z,0.00
2019-03-04T18:19:20.533Z,0.00
2019-03-04T18:20:20.505Z,0.00
2019-03-04T18:21:20.491Z,0.00
2019-03-04T18:22:20.477Z,0.00
2019-03-04T18:23:20.471Z,0.00
2019-03-04T18:24:20.493Z,0.00
2019-03-04T18:25:20.444Z,0.00
2019-03-04T18:26:20.433Z,0.00
2019-03-04T18:27:20.421Z,0.00
2019-03-04T18:28:20.416Z,0.00
2019-03-04T18:29:20.423Z,0.00
2019-03-04T18:30:20.389Z,0.00
2019-03-04T18:31:20.413Z,0.00
2019-03-04T18:32:20.396Z,0.00
2019-03-04T18:33:20.357Z,0.00
2019-03-04T18:34:20.346Z,0.00
2019-03-04T18:35:20.358Z,0.00
2019-03-04T18:36:20.328Z,0.00
2019-03-04T18:37:20.329Z,0.00
2019-03-04T18:38:20.303Z,0.00
2019-03-04T18:39:20.291Z,0.00
2019-03-04T18:40:20.299Z,0.00
2019-03-04T18:41:20.268Z,0.00
2019-03-04T18:42:20.258Z,0.00
2019-03-04T18:43:20.257Z,0.00
2019-03-04T18:44:20.233Z,0.00
2019-03-04T18:45:20.251Z,0.00
2019-03-04T18:46:20.210Z,0.00
2019-03-04T18:47:20.200Z,0.00
2019-03-04T18:48:20.187Z,0.00
2019-03-04T18:49:20.194Z,0.00
2019-03-04T18:50:20.189Z,0.00
2019-03-04T18:51:20.158Z,0.00
2019-03-04T18:52:20.148Z,0.00
2019-03-04T18:53:20.132Z,0.00
2019-03-04T18:54:20.129Z,0.00
2019-03-04T18:55:20.160Z,0.00
2019-03-04T18:56:22.199Z,0.00
2019-03-04T18:57:20.103Z,0.00
2019-03-04T18:58:20.076Z,0.00
2019-03-04T18:59:20.076Z,0.00
2019-03-04T19:00:20.078Z,0.00
2019-03-04T19:01:20.054Z,0.00
2019-03-04T19:02:20.042Z,0.00
2019-03-04T19:03:20.021Z,0.00
2019-03-04T19:04:20.015Z,0.00
2019-03-04T19:05:20.027Z,0.00
2019-03-04T19:06:19.989Z,0.00
2019-03-04T19:07:19.984Z,0.00
2019-03-04T19:08:19.987Z,0.00
2019-03-04T19:09:19.954Z,0.00
2019-03-04T19:10:19.941Z,0.00
2019-03-04T19:11:19.953Z,0.00
2019-03-04T19:12:19.918Z,0.00
2019-03-04T19:13:19.936Z,0.00
2019-03-04T19:14:19.895Z,0.00
2019-03-04T19:15:19.889Z,0.00
2019-03-04T19:16:19.896Z,0.00
2019-03-04T19:17:19.873Z,0.00
2019-03-04T19:18:19.850Z,0.00
2019-03-04T19:19:19.842Z,0.00
2019-03-04T19:20:19.831Z,0.00
2019-03-04T19:21:19.844Z,0.00
2019-03-04T19:22:20.457Z,0.00
2019-03-04T19:23:19.810Z,0.00
2019-03-04T19:24:19.783Z,0.00
2019-03-04T19:25:19.774Z,0.00
2019-03-04T19:26:19.782Z,0.00
2019-03-04T19:27:19.751Z,0.00
2019-03-04T19:28:19.739Z,0.00
2019-03-04T19:29:19.781Z,0.00
2019-03-04T19:30:19.719Z,0.00
2019-03-04T19:31:19.728Z,0.00
2019-03-04T19:32:19.693Z,0.00
2019-03-04T19:33:19.685Z,0.00
2019-03-04T19:34:19.672Z,0.00
2019-03-04T19:35:19.721Z,0.00
2019-03-04T19:36:19.674Z,0.00
2019-03-04T19:37:19.637Z,0.00
2019-03-04T19:38:19.630Z,0.00
2019-03-04T19:39:19.638Z,0.00
2019-03-04T19:40:19.602Z,0.00
2019-03-04T19:41:19.609Z,0.00
2019-03-04T19:42:19.604Z,0.00
2019-03-04T19:43:19.572Z,0.00
2019-03-04T19:44:19.563Z,0.00
2019-03-04T19:45:19.547Z,0.00
2019-03-04T19:46:19.536Z,0.00
2019-03-04T19:47:19.572Z,0.00
2019-03-04T19:48:19.513Z,0.00
2019-03-04T19:49:19.506Z,0.00
2019-03-04T19:50:19.495Z,0.00
2019-03-04T19:51:19.481Z,0.00
2019-03-04T19:52:19.493Z,0.00
2019-03-04T19:53:19.483Z,0.00
2019-03-04T19:54:19.446Z,0.00
2019-03-04T19:55:19.435Z,0.00
2019-03-04T19:56:19.422Z,0.00
2019-03-04T19:57:19.437Z,0.00
2019-03-04T19:58:19.400Z,0.00
2019-03-04T19:59:19.404Z,0.00
2019-03-04T20:00:19.386Z,0.00
2019-03-04T20:01:19.368Z,0.00
2019-03-04T20:02:19.378Z,0.00
2019-03-04T20:03:19.343Z,0.00
2019-03-04T20:04:19.331Z,0.00
2019-03-04T20:05:19.345Z,0.00
2019-03-04T20:06:19.318Z,0.00
2019-03-04T20:07:19.320Z,0.00
2019-03-04T20:08:19.287Z,0.00
2019-03-04T20:09:19.279Z,0.00
2019-03-04T20:10:19.269Z,0.00
2019-03-04T20:11:19.285Z,0.00
2019-03-04T20:12:19.265Z,0.00
2019-03-04T20:13:19.229Z,0.00
2019-03-04T20:14:19.243Z,0.00
2019-03-04T20:15:19.226Z,0.00
2019-03-04T20:16:19.201Z,0.00
2019-03-04T20:17:19.192Z,0.00
2019-03-04T20:18:19.195Z,0.00
2019-03-04T20:19:19.162Z,0.00
2019-03-04T20:20:19.158Z,0.00
2019-03-04T20:21:19.149Z,0.00
2019-03-04T20:22:19.130Z,0.00
2019-03-04T20:23:19.161Z,0.00
2019-03-04T20:24:19.115Z,0.00
2019-03-04T20:25:19.098Z,0.00
2019-03-04T20:26:19.086Z,0.00
2019-03-04T20:27:19.072Z,0.00
2019-03-04T20:28:19.089Z,0.00
2019-03-04T20:29:19.070Z,0.00
2019-03-04T20:30:19.038Z,0.00
2019-03-04T20:31:19.028Z,0.00
2019-03-04T20:32:19.033Z,0.00
2019-03-04T20:33:19.030Z,0.00
2019-03-04T20:34:18.993Z,0.00
2019-03-04T20:35:19.019Z,0.00
2019-03-04T20:36:18.974Z,0.00
2019-03-04T20:37:18.960Z,0.00
2019-03-04T20:38:18.970Z,0.00
2019-03-04T20:39:18.941Z,0.00
2019-03-04T20:40:18.924Z,0.00
2019-03-04T20:41:18.930Z,0.00
2019-03-04T20:42:18.904Z,0.00
2019-03-04T20:43:18.919Z,0.00
2019-03-04T20:44:18.879Z,0.00
2019-03-04T20:45:18.866Z,0.00
2019-03-04T20:46:18.855Z,0.00
2019-03-04T20:47:18.897Z,0.00
2019-03-04T20:48:18.857Z,0.00
2019-03-04T20:49:18.827Z,0.00
2019-03-04T20:50:18.813Z,0.00
2019-03-04T20:51:18.800Z,0.00
2019-03-04T20:52:18.788Z,0.00
2019-03-04T20:53:18.811Z,0.00
2019-03-04T20:54:18.770Z,0.00
2019-03-04T20:55:18.757Z,0.00
2019-03-04T20:56:18.744Z,0.00
2019-03-04T20:57:18.733Z,0.00
2019-03-04T20:58:18.745Z,0.00
2019-03-04T20:59:18.727Z,0.00
2019-03-04T21:00:18.702Z,0.00
2019-03-04T21:01:18.689Z,0.00
2019-03-04T21:02:18.679Z,0.00
2019-03-04T21:03:18.691Z,0.00
2019-03-04T21:04:18.656Z,0.00
2019-03-04T21:05:18.751Z,0.00
2019-03-04T21:06:18.637Z,0.00
2019-03-04T21:07:18.628Z,0.00
2019-03-04T21:08:18.636Z,0.00
2019-03-04T21:09:18.601Z,0.00
2019-03-04T21:10:18.591Z,0.00
2019-03-04T21:11:18.600Z,0.00
2019-03-04T21:12:18.572Z,0.00
2019-03-04T21:13:18.583Z,0.00
2019-03-04T21:14:18.551Z,0.00
2019-03-04T21:15:18.558Z,0.00
2019-03-04T21:16:18.522Z,0.00
2019-03-04T21:17:18.559Z,0.00
2019-03-04T21:18:18.502Z,0.00
2019-03-04T21:19:18.518Z,0.00
2019-03-04T21:20:18.481Z,0.00
2019-03-04T21:21:18.468Z,0.00
2019-03-04T21:22:18.457Z,0.00
2019-03-04T21:23:18.465Z,0.00
2019-03-04T21:24:18.457Z,0.00
2019-03-04T21:25:18.424Z,0.00
2019-03-04T21:26:18.433Z,0.00
2019-03-04T21:27:18.403Z,0.00